createdAt,value
2018-08-14T00:00:19.635Z,18.30
2018-08-14T00:02:47.881Z,18.30
2018-08-14T00:05:16.106Z,18.20
2018-08-14T00:07:44.601Z,18.20
2018-08-14T00:10:13.323Z,18.20
2018-08-14T00:12:41.527Z,18.20
2018-08-14T00:15:13.079Z,18.20
2018-08-14T00:17:41.655Z,18.20
2018-08-14T00:20:11.312Z,18.20
2018-08-14T00:22:39.974Z,18.20
2018-08-14T00:25:09.119Z,18.10
2018-08-14T00:27:38.154Z,18.20
2018-08-14T00:30:08.307Z,18.20
2018-08-14T00:32:36.525Z,18.10
2018-08-14T00:35:04.941Z,18.10
2018-08-14T00:37:33.125Z,18.10
2018-08-14T00:40:01.359Z,18.10
2018-08-14T00:42:29.619Z,18.10
2018-08-14T00:44:57.805Z,18.10
2018-08-14T00:47:26.018Z,18.10
2018-08-14T00:49:54.272Z,18.10
2018-08-14T00:52:22.494Z,18.20
2018-08-14T00:54:50.685Z,18.20
2018-08-14T00:57:18.865Z,18.20
2018-08-14T00:59:47.103Z,18.10
2018-08-14T01:02:15.344Z,18.10
2018-08-14T01:04:43.575Z,18.10
2018-08-14T01:07:11.784Z,18.10
2018-08-14T01:09:39.999Z,18.00
2018-08-14T01:12:08.218Z,18.00
2018-08-14T01:14:36.437Z,18.00
2018-08-14T01:17:04.683Z,18.00
2018-08-14T01:19:32.885Z,18.00
2018-08-14T01:22:01.203Z,18.00
2018-08-14T01:24:29.409Z,18.00
2018-08-14T01:26:57.649Z,18.00
2018-08-14T01:29:25.843Z,18.00
2018-08-14T01:31:54.109Z,18.00
2018-08-14T01:34:22.264Z,18.00
2018-08-14T01:36:50.442Z,18.00
2018-08-14T01:39:18.679Z,18.00
2018-08-14T01:41:46.865Z,18.00
2018-08-14T01:44:15.070Z,18.10
2018-08-14T01:46:43.262Z,18.10
2018-08-14T01:49:11.482Z,18.10
2018-08-14T01:51:39.702Z,18.10
2018-08-14T01:54:09.118Z,18.10
2018-08-14T01:56:37.400Z,18.00
2018-08-14T01:59:06.186Z,18.00
2018-08-14T02:01:34.385Z,18.00
2018-08-14T02:04:02.574Z,18.00
2018-08-14T02:06:30.983Z,18.00
2018-08-14T02:08:59.183Z,17.90
2018-08-14T02:11:28.409Z,17.90
2018-08-14T02:13:56.607Z,17.80
2018-08-14T02:16:24.786Z,17.80
2018-08-14T02:18:52.985Z,17.80
2018-08-14T02:21:21.193Z,17.70
2018-08-14T02:23:49.392Z,17.70
2018-08-14T02:26:17.617Z,17.60
2018-08-14T02:28:45.813Z,17.60
2018-08-14T02:31:14.046Z,17.60
2018-08-14T02:33:42.246Z,17.50
2018-08-14T02:36:10.683Z,17.50
2018-08-14T02:38:38.871Z,17.40
2018-08-14T02:41:07.089Z,17.40
2018-08-14T02:43:35.332Z,17.40
2018-08-14T02:46:03.542Z,17.30
2018-08-14T02:48:31.827Z,17.30
2018-08-14T02:51:00.036Z,17.30
2018-08-14T02:53:28.270Z,17.20
2018-08-14T02:55:56.507Z,17.20
2018-08-14T02:58:24.700Z,17.20
2018-08-14T03:00:53.336Z,17.10
2018-08-14T03:03:21.551Z,17.10
2018-08-14T03:05:49.754Z,17.00
2018-08-14T03:08:17.954Z,17.00
2018-08-14T03:10:46.161Z,17.00
2018-08-14T03:13:14.352Z,16.90
2018-08-14T03:15:42.548Z,16.90
2018-08-14T03:18:10.756Z,16.90
2018-08-14T03:20:39.570Z,16.90
2018-08-14T03:25:51.984Z,16.80
2018-08-14T03:28:20.204Z,16.80
2018-08-14T03:30:48.430Z,16.80
2018-08-14T03:33:16.648Z,16.80
2018-08-14T03:35:44.850Z,16.80
2018-08-14T03:38:13.072Z,16.80
2018-08-14T03:40:41.284Z,16.80
2018-08-14T03:43:09.522Z,16.70
2018-08-14T03:45:37.833Z,16.80
2018-08-14T03:48:06.458Z,16.80
2018-08-14T03:50:34.662Z,16.80
2018-08-14T03:53:02.885Z,16.70
2018-08-14T03:55:31.450Z,16.70
2018-08-14T03:57:59.786Z,16.70
2018-08-14T04:00:29.488Z,16.70
2018-08-14T04:02:58.237Z,16.70
2018-08-14T04:05:26.743Z,16.60
2018-08-14T04:07:55.219Z,16.60
2018-08-14T04:10:23.413Z,16.70
2018-08-14T04:12:51.633Z,16.70
2018-08-14T04:15:19.839Z,16.60
2018-08-14T04:17:48.032Z,16.60
2018-08-14T04:20:16.254Z,16.60
2018-08-14T04:22:44.448Z,16.60
2018-08-14T04:25:13.081Z,16.60
2018-08-14T04:27:41.328Z,16.60
2018-08-14T04:30:11.706Z,16.70
2018-08-14T04:32:40.104Z,16.70
2018-08-14T04:35:08.330Z,16.70
2018-08-14T04:37:36.525Z,16.70
2018-08-14T04:40:06.639Z,16.80
2018-08-14T04:42:34.862Z,16.80
2018-08-14T04:45:03.090Z,16.80
2018-08-14T04:47:31.334Z,16.80
2018-08-14T04:49:59.519Z,16.80
2018-08-14T04:52:27.766Z,16.80
2018-08-14T04:54:55.953Z,16.80
2018-08-14T04:57:24.149Z,16.80
2018-08-14T04:59:52.337Z,16.90
2018-08-14T05:02:20.649Z,16.90
2018-08-14T05:04:48.946Z,16.90
2018-08-14T05:07:17.170Z,16.90
2018-08-14T05:09:45.361Z,17.00
2018-08-14T05:12:13.592Z,17.00
2018-08-14T05:14:41.846Z,17.00
2018-08-14T05:17:10.023Z,17.00
2018-08-14T05:19:38.400Z,17.10
2018-08-14T05:22:06.644Z,17.20
2018-08-14T05:24:34.864Z,17.40
2018-08-14T05:27:03.350Z,17.40
2018-08-14T05:29:31.542Z,17.50
2018-08-14T05:31:59.751Z,17.50
2018-08-14T05:34:27.957Z,17.60
2018-08-14T05:36:56.139Z,17.60
2018-08-14T05:39:24.357Z,17.60
2018-08-14T05:41:52.616Z,17.60
2018-08-14T05:44:22.206Z,17.70
2018-08-14T05:46:50.426Z,17.80
2018-08-14T05:49:18.732Z,17.90
2018-08-14T05:51:47.928Z,18.10
2018-08-14T05:54:16.140Z,18.30
2018-08-14T05:56:45.442Z,18.40
2018-08-14T05:59:13.728Z,18.50
2018-08-14T06:01:42.441Z,18.70
2018-08-14T06:04:11.204Z,18.80
2018-08-14T06:06:39.558Z,18.90
2018-08-14T06:09:10.110Z,19.00
2018-08-14T06:11:38.374Z,19.00
2018-08-14T06:14:07.213Z,19.10
2018-08-14T06:16:35.421Z,19.10
2018-08-14T06:19:03.695Z,19.10
2018-08-14T06:21:31.921Z,19.10
2018-08-14T06:24:00.192Z,19.10
2018-08-14T06:26:28.440Z,19.10
2018-08-14T06:28:56.662Z,19.20
2018-08-14T06:31:24.879Z,19.20
2018-08-14T06:33:53.142Z,19.20
2018-08-14T06:36:21.527Z,19.30
2018-08-14T06:38:49.819Z,19.30
2018-08-14T06:41:18.307Z,19.40
2018-08-14T06:43:46.517Z,19.40
2018-08-14T06:46:14.751Z,19.40
2018-08-14T06:48:42.993Z,19.50
2018-08-14T06:51:11.206Z,19.50
2018-08-14T06:53:39.398Z,19.50
2018-08-14T06:56:07.625Z,19.60
2018-08-14T06:58:35.819Z,19.80
2018-08-14T07:01:04.047Z,19.90
2018-08-14T07:03:32.249Z,19.90
2018-08-14T07:06:00.487Z,19.90
2018-08-14T07:08:28.768Z,20.00
2018-08-14T07:10:56.937Z,20.00
2018-08-14T07:13:25.332Z,20.10
2018-08-14T07:15:53.551Z,20.10
2018-08-14T07:18:21.837Z,20.10
2018-08-14T07:20:50.031Z,20.20
2018-08-14T07:23:18.249Z,20.20
2018-08-14T07:25:46.457Z,20.30
2018-08-14T07:28:14.740Z,20.20
2018-08-14T07:30:43.003Z,20.20
2018-08-14T07:33:12.055Z,20.30
2018-08-14T07:35:40.255Z,20.40
2018-08-14T07:38:08.517Z,20.40
2018-08-14T07:40:36.763Z,20.60
2018-08-14T07:43:05.022Z,20.80
2018-08-14T07:45:33.653Z,20.80
2018-08-14T07:48:02.107Z,21.00
2018-08-14T07:50:30.322Z,21.10
2018-08-14T07:52:58.513Z,21.20
2018-08-14T07:55:26.763Z,21.30
2018-08-14T07:57:55.294Z,21.40
2018-08-14T08:00:23.705Z,21.50
2018-08-14T08:02:52.727Z,21.40
2018-08-14T08:05:21.380Z,21.50
2018-08-14T08:07:50.181Z,21.50
2018-08-14T08:10:18.621Z,21.50
2018-08-14T08:12:47.117Z,21.60
2018-08-14T08:15:16.377Z,21.70
2018-08-14T08:17:45.145Z,21.80
2018-08-14T08:20:26.238Z,21.70
2018-08-14T08:22:54.455Z,21.80
2018-08-14T08:25:22.967Z,21.90
2018-08-14T08:27:51.243Z,22.10
2018-08-14T08:30:19.447Z,22.20
2018-08-14T08:32:47.671Z,22.30
2018-08-14T08:35:15.945Z,22.40
2018-08-14T08:37:44.377Z,22.60
2018-08-14T08:40:13.167Z,22.80
2018-08-14T08:42:41.363Z,23.00
2018-08-14T08:45:10.258Z,23.20
2018-08-14T08:47:38.836Z,23.30
2018-08-14T08:50:09.280Z,23.30
2018-08-14T08:52:37.542Z,23.30
2018-08-14T08:55:05.795Z,23.30
2018-08-14T08:57:34.056Z,23.40
2018-08-14T09:00:02.299Z,23.50
2018-08-14T09:02:30.546Z,23.80
2018-08-14T09:04:58.750Z,24.00
2018-08-14T09:07:26.950Z,24.40
2018-08-14T09:09:55.144Z,24.60
2018-08-14T09:12:23.382Z,24.70
2018-08-14T09:14:51.652Z,25.10
2018-08-14T09:17:19.904Z,25.50
2018-08-14T09:19:48.212Z,25.80
2018-08-14T09:22:16.433Z,26.10
2018-08-14T09:24:44.640Z,26.20
2018-08-14T09:27:12.842Z,26.40
2018-08-14T09:29:41.029Z,26.80
2018-08-14T09:32:09.224Z,26.50
2018-08-14T09:34:37.426Z,26.20
2018-08-14T09:37:05.654Z,26.00
2018-08-14T09:39:33.858Z,25.70
2018-08-14T09:42:02.088Z,25.60
2018-08-14T09:44:30.321Z,25.60
2018-08-14T09:46:58.965Z,25.50
2018-08-14T09:49:27.170Z,25.50
2018-08-14T09:51:55.543Z,25.50
2018-08-14T09:54:23.816Z,25.40
2018-08-14T09:56:51.999Z,25.80
2018-08-14T09:59:20.214Z,26.40
2018-08-14T10:01:53.674Z,26.60
2018-08-14T10:04:26.193Z,26.60
2018-08-14T10:06:59.831Z,26.80
2018-08-14T10:09:28.022Z,26.70
2018-08-14T10:11:56.236Z,26.50
2018-08-14T10:14:29.762Z,26.20
2018-08-14T10:16:57.968Z,26.00
2018-08-14T10:19:26.207Z,25.70
2018-08-14T10:21:54.380Z,25.40
2018-08-14T10:24:22.666Z,25.00
2018-08-14T10:26:50.884Z,24.70
2018-08-14T10:29:19.068Z,24.70
2018-08-14T10:31:47.270Z,24.80
2018-08-14T10:34:15.494Z,25.40
2018-08-14T10:36:43.776Z,26.30
2018-08-14T10:39:11.990Z,27.30
2018-08-14T10:41:40.266Z,27.90
2018-08-14T10:44:08.528Z,28.50
2018-08-14T10:46:36.750Z,29.10
2018-08-14T10:49:05.021Z,29.50
2018-08-14T10:51:33.230Z,29.60
2018-08-14T10:54:01.654Z,29.80
2018-08-14T10:56:30.208Z,30.30
2018-08-14T10:58:58.404Z,30.70
2018-08-14T11:01:30.848Z,31.00
2018-08-14T11:03:59.074Z,31.40
2018-08-14T11:06:27.310Z,31.70
2018-08-14T11:08:55.542Z,31.40
2018-08-14T11:11:30.196Z,31.00
2018-08-14T11:13:59.070Z,31.10
2018-08-14T11:16:27.508Z,31.10
2018-08-14T11:18:55.634Z,30.30
2018-08-14T11:21:23.820Z,29.60
2018-08-14T11:23:52.022Z,29.20
2018-08-14T11:26:20.216Z,28.50
2018-08-14T11:28:48.416Z,27.70
2018-08-14T11:31:16.614Z,27.50
2018-08-14T11:33:44.832Z,27.30
2018-08-14T11:36:13.020Z,27.10
2018-08-14T11:38:41.270Z,26.70
2018-08-14T11:41:09.492Z,27.30
2018-08-14T11:43:37.716Z,28.70
2018-08-14T11:46:05.992Z,29.60
2018-08-14T11:48:34.186Z,30.30
2018-08-14T11:51:02.531Z,30.30
2018-08-14T11:53:30.690Z,30.60
2018-08-14T11:55:58.890Z,30.80
2018-08-14T11:58:27.126Z,30.80
2018-08-14T12:00:55.335Z,30.90
2018-08-14T12:03:23.526Z,31.30
2018-08-14T12:05:51.759Z,31.90
2018-08-14T12:08:19.947Z,32.30
2018-08-14T12:10:48.180Z,32.30
2018-08-14T12:13:16.511Z,32.70
2018-08-14T12:15:44.718Z,32.80
2018-08-14T12:18:13.011Z,33.00
2018-08-14T12:20:41.184Z,33.00
2018-08-14T12:23:09.385Z,33.20
2018-08-14T12:25:37.662Z,33.40
2018-08-14T12:28:05.965Z,33.60
2018-08-14T12:30:34.179Z,33.80
2018-08-14T12:33:02.469Z,34.00
2018-08-14T12:35:30.659Z,34.30
2018-08-14T12:37:59.155Z,34.40
2018-08-14T12:40:27.606Z,34.60
2018-08-14T12:42:55.869Z,35.10
2018-08-14T12:45:24.307Z,35.00
2018-08-14T12:47:53.269Z,35.10
2018-08-14T12:50:22.163Z,35.20
2018-08-14T12:52:50.388Z,35.40
2018-08-14T12:55:18.989Z,35.50
2018-08-14T12:57:47.618Z,36.00
2018-08-14T13:00:17.773Z,36.60
2018-08-14T13:02:46.011Z,36.60
2018-08-14T13:05:14.247Z,36.10
2018-08-14T13:07:42.452Z,35.50
2018-08-14T13:10:11.782Z,34.30
2018-08-14T13:12:40.547Z,33.50
2018-08-14T13:15:10.704Z,33.00
2018-08-14T13:17:39.049Z,33.40
2018-08-14T13:20:08.922Z,34.00
2018-08-14T13:22:37.188Z,34.50
2018-08-14T13:25:06.891Z,35.10
2018-08-14T13:27:35.357Z,35.30
2018-08-14T13:30:03.899Z,35.40
2018-08-14T13:32:32.246Z,35.80
2018-08-14T13:35:00.448Z,35.70
2018-08-14T13:37:28.812Z,35.20
2018-08-14T13:39:57.053Z,35.30
2018-08-14T13:42:25.261Z,35.20
2018-08-14T13:44:53.601Z,34.90
2018-08-14T13:47:21.803Z,34.10
2018-08-14T13:49:50.119Z,34.00
2018-08-14T13:52:18.777Z,34.20
2018-08-14T13:54:47.895Z,34.60
2018-08-14T13:57:16.124Z,34.80
2018-08-14T13:59:44.381Z,34.90
2018-08-14T14:02:12.611Z,35.00
2018-08-14T14:04:40.851Z,35.20
2018-08-14T14:07:09.826Z,35.50
2018-08-14T14:09:38.102Z,35.30
2018-08-14T14:12:06.276Z,34.70
2018-08-14T14:14:34.495Z,34.50
2018-08-14T14:17:02.713Z,34.60
2018-08-14T14:19:31.150Z,34.80
2018-08-14T14:21:59.345Z,35.10
2018-08-14T14:24:27.649Z,35.30
2018-08-14T14:26:55.840Z,35.50
2018-08-14T14:29:24.067Z,35.00
2018-08-14T14:31:52.276Z,34.30
2018-08-14T14:34:20.474Z,33.30
2018-08-14T14:36:48.707Z,32.20
2018-08-14T14:39:16.893Z,31.40
2018-08-14T14:41:45.093Z,30.70
2018-08-14T14:44:13.285Z,30.00
2018-08-14T14:46:41.481Z,29.30
2018-08-14T14:49:09.693Z,28.80
2018-08-14T14:51:37.935Z,28.60
2018-08-14T14:54:06.157Z,28.20
2018-08-14T14:56:34.371Z,28.10
2018-08-14T14:59:02.599Z,28.00
2018-08-14T15:01:30.792Z,27.80
2018-08-14T15:03:59.016Z,27.70
2018-08-14T15:06:27.207Z,27.50
2018-08-14T15:08:55.439Z,27.50
2018-08-14T15:11:23.637Z,27.90
2018-08-14T15:13:51.853Z,28.70
2018-08-14T15:16:20.083Z,28.80
2018-08-14T15:18:48.305Z,28.70
2018-08-14T15:21:16.475Z,28.40
2018-08-14T15:23:44.703Z,28.20
2018-08-14T15:26:12.925Z,28.00
2018-08-14T15:29:04.450Z,27.90
2018-08-14T15:31:33.695Z,27.80
2018-08-14T15:34:02.549Z,27.60
2018-08-14T15:36:31.859Z,27.60
2018-08-14T15:39:01.503Z,27.60
2018-08-14T15:41:30.792Z,27.60
2018-08-14T15:43:59.801Z,27.60
2018-08-14T15:46:28.828Z,27.50
2018-08-14T15:48:57.072Z,27.60
2018-08-14T15:51:25.275Z,27.60
2018-08-14T15:53:53.495Z,27.50
2018-08-14T15:56:21.931Z,27.30
2018-08-14T15:58:50.299Z,27.10
2018-08-14T16:01:18.591Z,27.00
2018-08-14T16:03:46.803Z,26.90
2018-08-14T16:06:15.128Z,26.80
2018-08-14T16:08:43.546Z,26.70
2018-08-14T16:11:11.768Z,26.70
2018-08-14T16:13:39.974Z,26.60
2018-08-14T16:16:08.184Z,26.50
2018-08-14T16:18:36.388Z,26.40
2018-08-14T16:21:04.586Z,26.40
2018-08-14T16:23:32.962Z,26.40
2018-08-14T16:26:01.175Z,26.40
2018-08-14T16:28:29.391Z,26.50
2018-08-14T16:30:57.642Z,26.40
2018-08-14T16:33:25.852Z,26.40
2018-08-14T16:35:54.046Z,26.40
2018-08-14T16:38:22.217Z,26.40
2018-08-14T16:40:50.459Z,26.40
2018-08-14T16:43:18.646Z,26.50
2018-08-14T16:45:46.946Z,26.60
2018-08-14T16:48:15.180Z,26.60
2018-08-14T16:50:43.378Z,26.70
2018-08-14T16:53:11.630Z,26.70
2018-08-14T16:55:40.154Z,26.60
2018-08-14T16:58:08.378Z,26.50
2018-08-14T17:00:38.716Z,26.40
2018-08-14T17:03:09.228Z,26.30
2018-08-14T17:05:37.602Z,26.20
2018-08-14T17:08:06.277Z,26.10
2018-08-14T17:10:34.682Z,25.90
2018-08-14T17:13:02.870Z,25.80
2018-08-14T17:15:31.099Z,25.80
2018-08-14T17:17:59.556Z,25.80
2018-08-14T17:20:26.762Z,25.70
2018-08-14T17:22:54.950Z,25.70
2018-08-14T17:25:23.174Z,25.70
2018-08-14T17:27:53.772Z,25.70
2018-08-14T17:30:27.224Z,25.70
2018-08-14T17:32:56.082Z,25.60
2018-08-14T17:35:24.324Z,25.60
2018-08-14T17:37:53.587Z,25.60
2018-08-14T17:40:23.067Z,25.60
2018-08-14T17:42:51.277Z,25.50
2018-08-14T17:45:35.045Z,25.40
2018-08-14T17:48:04.495Z,25.40
2018-08-14T17:50:33.219Z,25.30
2018-08-14T17:53:01.448Z,25.20
2018-08-14T17:55:29.702Z,25.10
2018-08-14T17:57:58.031Z,25.00
2018-08-14T18:00:28.864Z,24.90
2018-08-14T18:02:58.559Z,24.80
2018-08-14T18:05:26.753Z,24.40
2018-08-14T18:07:55.271Z,24.00
2018-08-14T18:10:24.091Z,23.60
2018-08-14T18:12:52.301Z,23.20
2018-08-14T18:15:21.390Z,22.90
2018-08-14T18:17:49.613Z,22.70
2018-08-14T18:20:19.183Z,22.60
2018-08-14T18:22:47.394Z,22.40
2018-08-14T18:25:16.760Z,22.20
2018-08-14T18:27:45.429Z,22.00
2018-08-14T18:30:14.853Z,21.80
2018-08-14T18:32:43.071Z,21.60
2018-08-14T18:35:11.618Z,21.40
2018-08-14T18:37:40.201Z,21.30
2018-08-14T18:40:13.250Z,21.10
2018-08-14T18:42:41.741Z,21.00
2018-08-14T18:45:11.736Z,20.90
2018-08-14T18:47:40.186Z,20.90
2018-08-14T18:50:09.182Z,20.70
2018-08-14T18:52:37.672Z,20.70
2018-08-14T18:55:06.688Z,20.70
2018-08-14T18:57:34.906Z,20.70
2018-08-14T19:00:03.145Z,20.70
2018-08-14T19:02:31.348Z,20.70
2018-08-14T19:04:59.549Z,20.70
2018-08-14T19:07:27.781Z,20.80
2018-08-14T19:09:56.017Z,20.80
2018-08-14T19:12:24.222Z,20.80
2018-08-14T19:14:52.418Z,20.90
2018-08-14T19:17:20.643Z,20.90
2018-08-14T19:19:49.057Z,21.00
2018-08-14T19:22:17.349Z,21.00
2018-08-14T19:24:45.696Z,21.00
2018-08-14T19:27:13.932Z,21.00
2018-08-14T19:29:42.143Z,20.90
2018-08-14T19:32:10.335Z,21.00
2018-08-14T19:34:38.541Z,21.00
2018-08-14T19:37:06.751Z,21.00
2018-08-14T19:39:34.996Z,21.00
2018-08-14T19:42:03.244Z,21.00
2018-08-14T19:44:31.425Z,20.90
2018-08-14T19:46:59.704Z,20.90
2018-08-14T19:49:27.864Z,20.90
2018-08-14T19:51:56.095Z,20.90
2018-08-14T19:54:24.294Z,20.90
2018-08-14T19:56:52.495Z,20.90
2018-08-14T19:59:20.781Z,20.90
2018-08-14T20:01:48.980Z,20.90
2018-08-14T20:04:17.211Z,20.80
2018-08-14T20:06:45.434Z,20.90
2018-08-14T20:09:13.909Z,20.90
2018-08-14T20:11:42.116Z,20.90
2018-08-14T20:14:10.320Z,20.90
2018-08-14T20:16:40.858Z,21.00
2018-08-14T20:19:09.100Z,21.00
2018-08-14T20:21:37.748Z,21.00
2018-08-14T20:24:06.028Z,21.00
2018-08-14T20:26:34.282Z,21.00
2018-08-14T20:29:02.576Z,21.00
2018-08-14T20:31:30.788Z,21.00
2018-08-14T20:33:58.994Z,21.00
2018-08-14T20:36:27.220Z,21.10
2018-08-14T20:38:55.442Z,21.10
2018-08-14T20:41:23.622Z,21.10
2018-08-14T20:43:51.859Z,21.00
2018-08-14T20:46:20.072Z,21.00
2018-08-14T20:48:48.309Z,21.00
2018-08-14T20:51:16.519Z,20.90
2018-08-14T20:53:44.738Z,20.90
2018-08-14T20:56:12.962Z,20.80
2018-08-14T20:58:41.208Z,20.70
2018-08-14T21:01:09.415Z,20.60
2018-08-14T21:03:37.645Z,20.60
2018-08-14T21:06:05.859Z,20.50
2018-08-14T21:08:34.056Z,20.50
2018-08-14T21:11:02.283Z,20.50
2018-08-14T21:13:30.483Z,20.50
2018-08-14T21:16:04.052Z,20.40
2018-08-14T21:18:32.250Z,20.40
2018-08-14T21:21:00.450Z,20.40
2018-08-14T21:23:28.661Z,20.30
2018-08-14T21:25:56.955Z,20.30
2018-08-14T21:28:25.168Z,20.20
2018-08-14T21:30:53.457Z,20.20
2018-08-14T21:33:21.671Z,20.10
2018-08-14T21:35:49.891Z,20.10
2018-08-14T21:38:18.149Z,20.00
2018-08-14T21:40:46.344Z,20.00
2018-08-14T21:43:14.554Z,19.90
2018-08-14T21:45:42.757Z,19.90
2018-08-14T21:48:10.969Z,19.80
2018-08-14T21:50:39.163Z,19.80
2018-08-14T21:53:07.490Z,19.80
2018-08-14T21:55:35.703Z,19.70
2018-08-14T21:58:04.086Z,19.70
2018-08-14T22:00:44.705Z,19.70
2018-08-14T22:03:12.898Z,19.60
2018-08-14T22:05:41.118Z,19.60
2018-08-14T22:08:09.420Z,19.50
2018-08-14T22:10:37.630Z,19.50
2018-08-14T22:13:05.834Z,19.40
2018-08-14T22:15:34.038Z,19.40
2018-08-14T22:18:02.245Z,19.40
2018-08-14T22:20:30.470Z,19.30
2018-08-14T22:22:58.671Z,19.30
2018-08-14T22:25:26.975Z,19.30
2018-08-14T22:27:55.679Z,19.30
2018-08-14T22:30:23.941Z,19.20
2018-08-14T22:32:52.197Z,19.20
2018-08-14T22:35:20.387Z,19.10
2018-08-14T22:37:48.637Z,19.10
2018-08-14T22:40:17.019Z,19.10
2018-08-14T22:42:45.319Z,19.10
2018-08-14T22:45:13.499Z,19.10
2018-08-14T22:47:41.893Z,19.00
2018-08-14T22:50:10.371Z,19.00
2018-08-14T22:52:39.053Z,19.10
2018-08-14T22:55:08.468Z,19.00
2018-08-14T22:57:36.650Z,19.00
2018-08-14T23:00:05.925Z,19.00
2018-08-14T23:02:34.107Z,19.00
2018-08-14T23:05:02.306Z,19.10
2018-08-14T23:07:30.537Z,19.00
2018-08-14T23:09:58.748Z,19.00
2018-08-14T23:12:26.951Z,19.00
2018-08-14T23:14:55.174Z,19.00
2018-08-14T23:17:23.367Z,19.00
2018-08-14T23:19:51.587Z,19.00
2018-08-14T23:22:19.792Z,18.90
2018-08-14T23:24:48.008Z,18.90
2018-08-14T23:27:16.253Z,18.80
2018-08-14T23:29:44.501Z,18.80
2018-08-14T23:32:12.739Z,18.80
2018-08-14T23:34:41.058Z,18.80
2018-08-14T23:37:10.076Z,18.80
2018-08-14T23:39:38.276Z,18.70
2018-08-14T23:42:06.486Z,18.70
2018-08-14T23:44:34.669Z,18.70
2018-08-14T23:47:02.841Z,18.70
2018-08-14T23:49:31.085Z,18.70
2018-08-14T23:51:59.303Z,18.70
2018-08-14T23:54:27.511Z,18.60
2018-08-14T23:56:55.691Z,18.60
2018-08-14T23:59:23.931Z,18.60
